Time;durP1;ratioP1;P1;durP2;ratioP2;P2;SDS_P1;SDS_P2;PMS_P1;PMS_P2;Temp;Humidity;BMP_temperature;BMP_pressure;BME280_temperature;BME280_humidity;BME280_pressure;Samples;Min_cycle;Max_cycle;Signal;HPM_P1;HPM_P2
2022/12/03 00:02:28;;;;;;;16.50;11.17;;;2.50;99.90;;;;;;10437937;28;20216;-72
2022/12/03 00:07:28;;;;;;;15.97;11.20;;;2.60;99.90;;;;;;10439045;28;20223;-71
2022/12/03 00:12:29;;;;;;;16.80;11.47;;;2.60;99.90;;;;;;10437923;28;20232;-69
2022/12/03 00:17:30;;;;;;;17.13;12.13;;;2.50;99.90;;;;;;10429180;28;20231;-70
2022/12/03 00:22:30;;;;;;;17.63;11.47;;;2.50;99.90;;;;;;10434804;28;20232;-71
2022/12/03 00:27:31;;;;;;;17.27;11.57;;;2.50;99.90;;;;;;10435853;28;20212;-70
2022/12/03 00:32:31;;;;;;;19.43;12.33;;;2.60;99.90;;;;;;10429197;28;20223;-70
2022/12/03 00:37:34;;;;;;;17.90;11.67;;;2.60;99.90;;;;;;10433367;28;20585;-76
2022/12/03 00:42:34;;;;;;;21.43;12.67;;;2.60;99.90;;;;;;10432039;28;20254;-72
2022/12/03 00:47:35;;;;;;;19.73;12.70;;;2.60;99.90;;;;;;10426447;28;20271;-71
2022/12/03 00:52:35;;;;;;;21.47;13.30;;;2.50;99.90;;;;;;10427374;28;20593;-71
2022/12/03 00:57:36;;;;;;;20.53;13.27;;;2.60;99.90;;;;;;10432954;28;20362;-70
2022/12/03 01:02:36;;;;;;;21.23;12.90;;;2.60;99.90;;;;;;10436888;28;20220;-71
2022/12/03 01:07:37;;;;;;;20.30;12.97;;;2.60;99.90;;;;;;10430416;28;20224;-70
2022/12/03 01:12:38;;;;;;;19.13;11.97;;;2.60;99.90;;;;;;10440212;28;20224;-71
2022/12/03 01:17:39;;;;;;;20.30;12.90;;;2.60;99.90;;;;;;10435506;28;20220;-71
2022/12/03 01:22:39;;;;;;;21.13;13.20;;;2.60;99.90;;;;;;10439324;28;20211;-71
2022/12/03 01:27:40;;;;;;;25.30;14.43;;;2.60;99.90;;;;;;10429405;28;20311;-71
2022/12/03 01:32:40;;;;;;;25.37;14.23;;;2.60;99.90;;;;;;10425641;28;20224;-71
2022/12/03 01:37:41;;;;;;;27.60;14.50;;;2.60;99.90;;;;;;10431503;28;20212;-73
2022/12/03 01:42:42;;;;;;;24.33;14.87;;;2.60;99.90;;;;;;10428864;28;20215;-73
2022/12/03 01:47:43;;;;;;;23.70;14.10;;;2.70;99.90;;;;;;10431725;28;20220;-72
2022/12/03 01:52:44;;;;;;;27.17;14.63;;;2.70;99.90;;;;;;10428627;28;20216;-73
2022/12/03 01:57:48;;;;;;;27.03;14.57;;;2.70;99.90;;;;;;10435644;28;20752;-73
2022/12/03 02:02:52;;;;;;;25.33;14.40;;;2.80;99.90;;;;;;10432145;28;20318;-72
2022/12/03 02:07:53;;;;;;;27.90;15.13;;;2.90;99.90;;;;;;10431150;28;20268;-72
2022/12/03 02:12:59;;;;;;;24.90;14.53;;;2.90;99.90;;;;;;10438188;28;20236;-72
2022/12/03 02:18:00;;;;;;;26.00;15.07;;;2.90;99.90;;;;;;10427967;28;20692;-73
2022/12/03 02:23:10;;;;;;;25.60;14.83;;;3.00;99.90;;;;;;10440301;28;20224;-72
2022/12/03 02:28:11;;;;;;;23.60;14.33;;;2.90;99.90;;;;;;10439221;28;20358;-73
2022/12/03 02:33:12;;;;;;;23.67;13.13;;;2.90;99.90;;;;;;10439847;28;20220;-71
2022/12/03 02:38:19;;;;;;;23.07;14.20;;;2.90;99.90;;;;;;10443591;28;20216;-70
2022/12/03 02:43:23;;;;;;;23.37;14.53;;;2.90;99.90;;;;;;10430807;28;20265;-70
2022/12/03 02:48:28;;;;;;;28.70;15.67;;;2.90;99.90;;;;;;10431908;28;20244;-71
2022/12/03 02:53:35;;;;;;;22.60;13.83;;;2.90;99.90;;;;;;10436395;28;20710;-71
2022/12/03 02:58:36;;;;;;;24.07;14.77;;;2.90;99.90;;;;;;10432192;28;20236;-71
2022/12/03 03:03:40;;;;;;;28.47;15.63;;;2.90;99.90;;;;;;10437345;28;20223;-70
2022/12/03 03:08:41;;;;;;;23.20;14.50;;;2.90;99.90;;;;;;10424635;28;20225;-71
2022/12/03 03:13:42;;;;;;;25.77;14.87;;;2.90;99.90;;;;;;10436698;28;20232;-73
2022/12/03 03:18:43;;;;;;;23.57;14.50;;;2.90;99.90;;;;;;10434619;28;20216;-72
2022/12/03 03:23:43;;;;;;;24.83;14.70;;;2.90;99.90;;;;;;10433237;28;20682;-71
2022/12/03 03:28:47;;;;;;;26.93;15.33;;;2.90;99.90;;;;;;10424180;28;20304;-72
2022/12/03 03:33:49;;;;;;;28.53;15.67;;;3.00;99.90;;;;;;10431101;28;20606;-71
2022/12/03 03:38:50;;;;;;;25.50;14.80;;;3.00;99.90;;;;;;10449395;28;20735;-71
2022/12/03 03:43:54;;;;;;;24.83;14.37;;;3.00;99.90;;;;;;10448344;28;20596;-70
2022/12/03 03:48:54;;;;;;;26.70;14.33;;;3.00;99.90;;;;;;10444207;28;20774;-74
2022/12/03 03:53:55;;;;;;;23.93;14.83;;;3.00;99.90;;;;;;10427146;28;20220;-71
2022/12/03 03:58:56;;;;;;;22.47;13.80;;;3.00;99.90;;;;;;10434257;28;20231;-71
2022/12/03 04:03:58;;;;;;;25.10;14.97;;;3.00;99.90;;;;;;10437264;28;20265;-72
2022/12/03 04:08:58;;;;;;;22.33;13.97;;;2.90;99.90;;;;;;10426746;28;20224;-72
2022/12/03 04:13:59;;;;;;;24.90;14.43;;;3.00;99.90;;;;;;10431157;28;20521;-71
2022/12/03 04:19:00;;;;;;;26.47;15.20;;;2.90;99.90;;;;;;10439417;28;20239;-72
2022/12/03 04:24:00;;;;;;;22.50;14.17;;;2.90;99.90;;;;;;10423421;28;20224;-71
2022/12/03 04:29:01;;;;;;;25.53;15.83;;;2.90;99.90;;;;;;10425212;28;20224;-72
2022/12/03 04:39:21;;;;;;;23.27;14.30;;;2.90;99.90;;;;;;10427273;28;20228;-72
2022/12/03 04:44:36;;;;;;;25.97;14.60;;;2.90;99.90;;;;;;10429648;28;20216;-72
2022/12/03 04:49:48;;;;;;;25.33;15.60;;;2.90;99.90;;;;;;10432466;28;20671;-72
2022/12/03 04:54:48;;;;;;;25.33;14.27;;;3.00;99.90;;;;;;10435324;28;20216;-72
2022/12/03 04:59:49;;;;;;;21.40;14.00;;;3.00;99.90;;;;;;10442563;28;20226;-73
2022/12/03 05:04:49;;;;;;;23.80;13.83;;;3.10;99.90;;;;;;10425665;28;20228;-73
2022/12/03 05:09:50;;;;;;;25.50;14.73;;;3.10;99.90;;;;;;10428952;28;20262;-73
2022/12/03 05:14:51;;;;;;;23.97;14.23;;;3.00;99.90;;;;;;10431147;28;20228;-73
2022/12/03 05:25:10;;;;;;;23.63;13.20;;;3.10;99.90;;;;;;10424989;28;20224;-72
2022/12/03 05:30:11;;;;;;;21.40;13.50;;;3.00;99.90;;;;;;10431038;28;20644;-71
2022/12/03 05:35:15;;;;;;;20.13;13.40;;;3.00;99.90;;;;;;10431960;28;20215;-71
2022/12/03 05:40:16;;;;;;;23.77;13.53;;;3.00;99.90;;;;;;10441389;28;20696;-71
2022/12/03 05:45:17;;;;;;;17.43;12.37;;;3.00;99.90;;;;;;10439016;28;20184;-70
2022/12/03 05:50:19;;;;;;;19.83;12.90;;;3.00;99.90;;;;;;10439949;28;20199;-71
2022/12/03 05:55:20;;;;;;;22.07;13.57;;;3.00;99.90;;;;;;10439097;28;20200;-72
2022/12/03 06:00:23;;;;;;;20.80;12.60;;;3.00;99.90;;;;;;10431190;28;20184;-73
2022/12/03 06:05:24;;;;;;;19.60;12.57;;;2.90;99.90;;;;;;10434119;28;20675;-73
2022/12/03 06:10:25;;;;;;;19.13;12.47;;;2.90;99.90;;;;;;10442122;28;20746;-74
2022/12/03 06:15:26;;;;;;;22.97;12.80;;;2.90;99.90;;;;;;10440330;28;20224;-71
2022/12/03 06:20:26;;;;;;;20.97;12.93;;;2.90;99.90;;;;;;10438830;28;20215;-71
2022/12/03 06:25:27;;;;;;;19.03;12.30;;;3.00;99.90;;;;;;10432402;28;20216;-71
2022/12/03 06:30:27;;;;;;;17.37;11.57;;;3.00;99.90;;;;;;10438229;28;20242;-71
2022/12/03 06:35:28;;;;;;;15.67;11.37;;;3.00;99.90;;;;;;10437739;28;20220;-71
2022/12/03 06:40:29;;;;;;;17.40;10.97;;;3.00;99.90;;;;;;10432014;28;20223;-71
2022/12/03 06:45:29;;;;;;;18.27;11.73;;;3.00;99.90;;;;;;10431153;28;20698;-72
2022/12/03 06:50:30;;;;;;;17.20;10.60;;;2.90;99.90;;;;;;10436351;28;20227;-71
2022/12/03 06:55:45;;;;;;;17.80;11.20;;;2.90;99.90;;;;;;10404460;28;20725;-71
2022/12/03 07:00:49;;;;;;;15.87;10.97;;;2.90;99.90;;;;;;10442705;28;20298;-72
2022/12/03 07:05:49;;;;;;;16.40;10.67;;;2.90;99.90;;;;;;10423144;28;20243;-71
2022/12/03 07:10:50;;;;;;;14.03;9.90;;;2.90;99.90;;;;;;10435508;28;20230;-72
2022/12/03 07:15:51;;;;;;;15.67;10.60;;;2.80;99.90;;;;;;10435229;28;20715;-71
2022/12/03 07:20:51;;;;;;;15.57;10.43;;;2.90;99.90;;;;;;10437083;28;20239;-72
2022/12/03 07:25:52;;;;;;;14.80;10.43;;;2.90;99.90;;;;;;10435252;28;20222;-73
2022/12/03 07:30:52;;;;;;;15.47;10.67;;;2.90;99.90;;;;;;10437000;28;20221;-69
2022/12/03 07:35:53;;;;;;;13.93;9.73;;;2.90;99.90;;;;;;10432881;28;20231;-68
2022/12/03 07:40:55;;;;;;;16.50;10.33;;;3.00;99.90;;;;;;10445381;28;20663;-70
2022/12/03 07:45:55;;;;;;;15.93;10.37;;;3.00;99.90;;;;;;10426579;28;20219;-69
2022/12/03 07:50:56;;;;;;;15.03;10.00;;;3.10;99.90;;;;;;10426199;28;20230;-69
2022/12/03 07:55:56;;;;;;;14.70;10.23;;;3.10;99.90;;;;;;10433310;28;20244;-68
2022/12/03 08:00:58;;;;;;;14.17;10.03;;;3.20;99.90;;;;;;10425724;28;20236;-68
2022/12/03 08:05:59;;;;;;;15.30;10.53;;;3.20;99.90;;;;;;10433385;28;20227;-68
2022/12/03 08:11:02;;;;;;;17.27;10.97;;;3.20;99.90;;;;;;10434122;28;20224;-68
2022/12/03 08:16:16;;;;;;;16.90;10.83;;;3.20;99.90;;;;;;10439659;28;20315;-68
2022/12/03 08:21:19;;;;;;;18.97;11.63;;;3.20;99.90;;;;;;10433228;28;20274;-68
2022/12/03 08:26:25;;;;;;;15.37;11.50;;;3.30;99.90;;;;;;10433014;28;20220;-69
2022/12/03 08:31:25;;;;;;;16.20;11.40;;;3.30;99.90;;;;;;10444323;28;20212;-68
2022/12/03 08:36:31;;;;;;;18.47;12.07;;;3.40;99.90;;;;;;10440769;28;20707;-74
2022/12/03 08:47:19;;;;;;;19.87;12.43;;;3.60;99.90;;;;;;10439647;28;20299;-70
2022/12/03 08:52:21;;;;;;;23.07;13.10;;;3.60;99.90;;;;;;10434130;28;20275;-69
2022/12/03 08:57:29;;;;;;;23.13;13.57;;;3.70;99.90;;;;;;10446661;28;20212;-70
2022/12/03 09:02:33;;;;;;;20.50;13.03;;;3.70;99.90;;;;;;10443983;28;20219;-67
2022/12/03 09:07:34;;;;;;;20.83;12.63;;;3.80;99.90;;;;;;10440056;28;20223;-70
2022/12/03 09:12:34;;;;;;;20.23;13.17;;;3.90;99.90;;;;;;10431207;28;20691;-70
2022/12/03 09:17:35;;;;;;;17.43;12.37;;;4.00;99.90;;;;;;10426091;28;20216;-74
2022/12/03 09:22:35;;;;;;;22.13;13.87;;;4.20;99.90;;;;;;10428180;28;20251;-70
2022/12/03 09:27:37;;;;;;;19.20;14.30;;;4.40;99.90;;;;;;10426655;28;20254;-72
2022/12/03 09:32:37;;;;;;;20.10;13.03;;;4.70;99.90;;;;;;10432496;28;20272;-72
2022/12/03 09:37:38;;;;;;;18.43;12.83;;;4.60;99.90;;;;;;10434632;28;20581;-70
2022/12/03 09:42:39;;;;;;;20.07;13.67;;;4.40;99.90;;;;;;10443559;28;20220;-71
2022/12/03 09:47:42;;;;;;;18.87;13.47;;;4.30;99.90;;;;;;10419579;28;20221;-73
2022/12/03 09:52:44;;;;;;;19.80;13.13;;;4.20;99.90;;;;;;10428376;28;20236;-72
2022/12/03 09:57:44;;;;;;;22.60;14.93;;;4.10;99.90;;;;;;10426870;28;20706;-70
2022/12/03 10:02:50;;;;;;;23.37;14.70;;;4.10;99.90;;;;;;10423984;28;20219;-70
2022/12/03 10:07:51;;;;;;;20.53;14.03;;;4.10;99.90;;;;;;10439956;28;20223;-70
2022/12/03 10:12:52;;;;;;;18.87;13.17;;;4.10;99.90;;;;;;10432787;28;20696;-74
2022/12/03 10:18:08;;;;;;;20.13;14.40;;;4.00;99.90;;;;;;10445218;28;20213;-74
2022/12/03 10:23:21;;;;;;;20.53;14.33;;;4.10;99.90;;;;;;10428305;28;20242;-75
2022/12/03 10:28:31;;;;;;;21.23;14.43;;;4.10;99.90;;;;;;10429354;28;20216;-75
2022/12/03 10:33:41;;;;;;;21.63;14.07;;;4.10;99.90;;;;;;10433287;28;20233;-76
2022/12/03 10:38:46;;;;;;;21.27;14.67;;;4.10;99.90;;;;;;10436162;28;20301;-74
2022/12/03 10:43:47;;;;;;;27.07;15.37;;;4.20;99.90;;;;;;10431193;28;20232;-75
2022/12/03 10:49:13;;;;;;;23.07;14.70;;;4.20;99.90;;;;;;10443605;28;20223;-73
2022/12/03 10:54:21;;;;;;;22.20;15.10;;;4.10;99.90;;;;;;10438162;28;20278;-74
2022/12/03 10:59:29;;;;;;;21.97;14.93;;;4.20;99.90;;;;;;10433174;28;20228;-75
2022/12/03 11:04:33;;;;;;;21.00;14.33;;;4.20;99.90;;;;;;10428519;28;20220;-75
2022/12/03 11:09:34;;;;;;;21.80;15.77;;;4.30;99.90;;;;;;10433255;28;20223;-74
2022/12/03 11:14:51;;;;;;;22.77;14.93;;;4.30;99.90;;;;;;10442526;28;20220;-76
2022/12/03 11:19:51;;;;;;;21.27;14.77;;;4.40;99.90;;;;;;10434896;28;20357;-74
2022/12/03 11:25:24;;;;;;;21.07;15.50;;;4.50;99.90;;;;;;10429676;28;20229;-75
2022/12/03 11:30:50;;;;;;;20.80;14.60;;;4.50;99.90;;;;;;10429913;28;20247;-75
2022/12/03 11:35:59;;;;;;;23.37;15.40;;;4.40;99.90;;;;;;10396933;28;20237;-74
2022/12/03 11:41:16;;;;;;;22.33;15.67;;;4.40;99.90;;;;;;10402799;28;20311;-74
2022/12/03 11:46:46;;;;;;;23.17;15.57;;;4.40;99.90;;;;;;10394914;28;20311;-75
2022/12/03 11:51:47;;;;;;;25.10;16.17;;;4.40;99.90;;;;;;10382210;28;20228;-75
2022/12/03 11:56:49;;;;;;;22.07;15.60;;;4.40;99.90;;;;;;10387354;28;20233;-75
2022/12/03 12:01:50;;;;;;;23.37;15.30;;;4.30;99.90;;;;;;10391447;28;20597;-76
2022/12/03 12:06:51;;;;;;;24.70;16.13;;;4.30;99.90;;;;;;10383576;28;20233;-75
2022/12/03 12:11:52;;;;;;;22.63;15.47;;;4.40;99.90;;;;;;10389270;28;20220;-75
2022/12/03 12:16:54;;;;;;;23.97;16.07;;;4.40;99.90;;;;;;10384742;28;20220;-75
2022/12/03 12:21:55;;;;;;;24.10;14.77;;;4.40;99.90;;;;;;10391795;28;20229;-75
2022/12/03 12:26:57;;;;;;;23.60;15.87;;;4.40;99.90;;;;;;10376828;28;20225;-75
2022/12/03 12:32:05;;;;;;;21.83;15.57;;;4.40;99.90;;;;;;10391044;28;20220;-76
2022/12/03 12:37:33;;;;;;;23.47;16.17;;;4.40;99.90;;;;;;10416712;28;20221;-75
2022/12/03 12:42:41;;;;;;;25.93;16.30;;;4.30;99.90;;;;;;10381967;28;20242;-74
2022/12/03 12:47:48;;;;;;;23.03;16.10;;;4.30;99.90;;;;;;10385236;28;20233;-76
2022/12/03 12:52:57;;;;;;;24.43;17.07;;;4.40;99.90;;;;;;10391192;28;20229;-75
2022/12/03 12:58:04;;;;;;;24.10;15.90;;;4.30;99.90;;;;;;10399545;28;20227;-75
2022/12/03 13:03:06;;;;;;;22.93;16.43;;;4.30;99.90;;;;;;10382743;28;20287;-75
2022/12/03 13:08:21;;;;;;;24.23;15.80;;;4.20;99.90;;;;;;10374236;28;20225;-75
2022/12/03 13:13:34;;;;;;;25.07;16.53;;;4.30;99.90;;;;;;10388360;28;20260;-75
2022/12/03 13:18:59;;;;;;;23.70;16.10;;;4.30;99.90;;;;;;10386165;28;20304;-75
2022/12/03 13:24:00;;;;;;;24.40;16.70;;;4.30;99.90;;;;;;10389732;28;20232;-75
2022/12/03 13:29:17;;;;;;;25.10;16.83;;;4.40;99.90;;;;;;10390711;28;20283;-75
2022/12/03 13:34:22;;;;;;;25.17;17.70;;;4.40;99.90;;;;;;10395322;28;20221;-75
2022/12/03 13:39:28;;;;;;;30.13;17.53;;;4.30;99.90;;;;;;10387663;28;20228;-75
2022/12/03 13:44:31;;;;;;;29.70;18.03;;;4.30;99.90;;;;;;10386403;28;20922;-74
2022/12/03 13:49:33;;;;;;;24.70;17.40;;;4.30;99.90;;;;;;10390302;28;20235;-74
2022/12/03 13:54:36;;;;;;;24.80;16.83;;;4.30;99.90;;;;;;10383636;28;20224;-74
2022/12/03 13:59:37;;;;;;;24.83;16.80;;;4.30;99.90;;;;;;10398859;28;20221;-75
2022/12/03 14:04:38;;;;;;;25.47;17.27;;;4.30;99.90;;;;;;10392789;28;20340;-75
2022/12/03 14:09:39;;;;;;;25.13;17.00;;;4.20;99.90;;;;;;10388838;28;20225;-75
2022/12/03 14:14:39;;;;;;;24.93;16.67;;;4.20;99.90;;;;;;10395768;28;20699;-75
2022/12/03 14:19:40;;;;;;;26.63;17.20;;;4.20;99.90;;;;;;10394285;28;20212;-74
2022/12/03 14:24:40;;;;;;;26.53;17.77;;;4.20;99.90;;;;;;10389014;28;20244;-75
2022/12/03 14:29:41;;;;;;;27.13;17.63;;;4.20;99.90;;;;;;10391782;28;20232;-75
2022/12/03 14:34:41;;;;;;;25.40;17.30;;;4.20;99.90;;;;;;10393357;28;20421;-75
2022/12/03 14:39:42;;;;;;;23.43;17.30;;;4.20;99.90;;;;;;10391527;28;20218;-75
2022/12/03 14:44:45;;;;;;;23.73;16.83;;;4.20;99.90;;;;;;10394275;28;20218;-75
2022/12/03 14:49:46;;;;;;;26.97;17.60;;;4.30;99.90;;;;;;10388418;28;20670;-75
2022/12/03 14:54:46;;;;;;;24.80;17.50;;;4.30;99.90;;;;;;10393809;28;20255;-74
2022/12/03 14:59:47;;;;;;;27.30;17.93;;;4.30;99.90;;;;;;10396927;28;20213;-75
2022/12/03 15:04:48;;;;;;;28.37;18.47;;;4.30;99.90;;;;;;10394853;28;20930;-74
2022/12/03 15:09:49;;;;;;;29.00;18.80;;;4.20;99.90;;;;;;10393748;28;20265;-74
2022/12/03 15:14:49;;;;;;;25.90;18.07;;;4.20;99.90;;;;;;10392939;28;20227;-74
2022/12/03 15:19:53;;;;;;;28.47;18.43;;;4.20;99.90;;;;;;10388566;28;20223;-74
2022/12/03 15:24:53;;;;;;;25.53;18.00;;;4.10;99.90;;;;;;10393999;28;20704;-75
2022/12/03 15:29:54;;;;;;;26.57;18.47;;;4.10;99.90;;;;;;10387158;28;20209;-74
2022/12/03 15:34:56;;;;;;;26.50;17.83;;;4.00;99.90;;;;;;10399692;28;20692;-75
2022/12/03 15:39:56;;;;;;;26.73;17.70;;;4.00;99.90;;;;;;10395605;28;20275;-74
2022/12/03 15:44:57;;;;;;;28.50;19.87;;;4.00;99.90;;;;;;10394502;28;20248;-75
2022/12/03 15:49:57;;;;;;;28.43;18.87;;;4.00;99.90;;;;;;10402463;28;20331;-76
2022/12/03 15:54:58;;;;;;;28.27;19.10;;;4.00;99.90;;;;;;10386716;28;20233;-74
2022/12/03 15:59:59;;;;;;;28.70;18.20;;;4.00;99.90;;;;;;10392731;28;20673;-74
2022/12/03 16:05:05;;;;;;;29.03;19.53;;;4.00;99.90;;;;;;10387842;28;20221;-74
2022/12/03 16:10:09;;;;;;;28.60;19.33;;;3.90;99.90;;;;;;10394533;28;20209;-74
2022/12/03 16:15:09;;;;;;;33.03;20.80;;;3.90;99.90;;;;;;10391722;28;20307;-74
2022/12/03 16:20:10;;;;;;;29.60;19.87;;;3.90;99.90;;;;;;10385089;28;20287;-75
2022/12/03 16:25:14;;;;;;;29.80;18.80;;;3.90;99.90;;;;;;10394972;28;20200;-74
2022/12/03 16:30:14;;;;;;;29.17;18.20;;;3.90;99.90;;;;;;10387243;28;20633;-76
2022/12/03 16:35:15;;;;;;;31.60;19.67;;;3.90;99.90;;;;;;10391800;28;20315;-75
2022/12/03 16:40:16;;;;;;;29.30;19.10;;;3.80;99.90;;;;;;10394330;28;20270;-75
2022/12/03 16:45:39;;;;;;;28.20;19.10;;;3.90;99.90;;;;;;10383214;28;20216;-75
2022/12/03 16:50:40;;;;;;;35.93;20.70;;;3.90;99.90;;;;;;10388415;28;20235;-75
2022/12/03 16:55:40;;;;;;;31.93;19.33;;;3.90;99.90;;;;;;10384347;28;20232;-75
2022/12/03 17:00:41;;;;;;;28.50;19.77;;;3.90;99.90;;;;;;10382600;28;20350;-75
2022/12/03 17:05:42;;;;;;;32.17;20.13;;;3.90;99.90;;;;;;10399289;28;20270;-75
2022/12/03 17:10:43;;;;;;;33.47;20.27;;;3.80;99.90;;;;;;10366464;28;20243;-74
2022/12/03 17:15:43;;;;;;;30.17;18.93;;;3.90;99.90;;;;;;10386564;28;20229;-74
2022/12/03 17:20:44;;;;;;;28.37;18.37;;;3.90;99.90;;;;;;10393617;28;20217;-75
2022/12/03 17:25:44;;;;;;;27.73;18.67;;;3.80;99.90;;;;;;10388286;28;20347;-74
2022/12/03 17:30:45;;;;;;;27.63;18.53;;;3.80;99.90;;;;;;10393960;28;20326;-75
2022/12/03 17:35:47;;;;;;;29.50;19.10;;;3.80;99.90;;;;;;10398168;28;20311;-75
2022/12/03 17:40:47;;;;;;;27.80;18.27;;;3.90;99.90;;;;;;10397821;28;20217;-75
2022/12/03 17:45:48;;;;;;;28.87;19.27;;;3.90;99.90;;;;;;10395077;28;20282;-75
2022/12/03 17:50:49;;;;;;;29.73;18.53;;;3.80;99.90;;;;;;10391078;28;20383;-76
2022/12/03 17:55:49;;;;;;;28.63;18.83;;;3.80;99.90;;;;;;10387550;28;20235;-77
2022/12/03 18:00:50;;;;;;;26.53;17.57;;;3.80;99.90;;;;;;10395633;28;20220;-76
2022/12/03 18:05:50;;;;;;;28.77;17.90;;;3.80;99.90;;;;;;10388674;28;20232;-77
2022/12/03 18:10:51;;;;;;;29.27;18.27;;;3.80;99.90;;;;;;10388196;28;20227;-76
2022/12/03 18:15:52;;;;;;;27.97;18.67;;;3.80;99.90;;;;;;10398717;28;20225;-76
2022/12/03 18:20:52;;;;;;;24.63;16.53;;;3.90;99.90;;;;;;10395510;28;20244;-76
2022/12/03 18:25:54;;;;;;;26.77;17.57;;;3.90;99.90;;;;;;10386310;28;20216;-76
2022/12/03 18:30:54;;;;;;;27.20;17.53;;;3.90;99.90;;;;;;10387010;28;20220;-77
2022/12/03 18:35:56;;;;;;;28.57;17.47;;;3.80;99.90;;;;;;10388998;28;20683;-76
2022/12/03 18:40:57;;;;;;;32.73;19.20;;;3.80;99.90;;;;;;10396522;28;20217;-76
2022/12/03 18:45:58;;;;;;;31.57;18.80;;;3.80;99.90;;;;;;10394790;28;20213;-77
2022/12/03 18:50:58;;;;;;;28.23;17.73;;;3.90;99.90;;;;;;10387452;28;20382;-76
2022/12/03 18:55:59;;;;;;;30.23;19.00;;;3.90;99.90;;;;;;10386085;28;20324;-78
2022/12/03 19:00:59;;;;;;;27.30;17.87;;;3.90;99.90;;;;;;10394476;28;20222;-75
2022/12/03 19:06:00;;;;;;;31.43;18.40;;;3.90;99.90;;;;;;10385523;28;20304;-75
2022/12/03 19:11:01;;;;;;;30.70;19.43;;;3.90;99.90;;;;;;10394970;28;20216;-76
2022/12/03 19:16:02;;;;;;;28.50;18.03;;;4.00;99.90;;;;;;10395321;28;20233;-76
2022/12/03 19:21:07;;;;;;;24.60;17.30;;;4.00;99.90;;;;;;10385547;28;20960;-75
2022/12/03 19:26:11;;;;;;;29.67;18.27;;;3.90;99.90;;;;;;10401132;28;20787;-74
2022/12/03 19:31:14;;;;;;;25.83;16.77;;;3.90;99.90;;;;;;10394261;28;20224;-75
2022/12/03 19:36:35;;;;;;;27.27;17.40;;;3.90;99.90;;;;;;10395690;28;20216;-74
2022/12/03 19:41:36;;;;;;;26.70;17.40;;;3.90;99.90;;;;;;10394100;28;20720;-75
2022/12/03 19:46:40;;;;;;;26.87;16.93;;;3.90;99.90;;;;;;10388994;28;20270;-75
2022/12/03 19:51:41;;;;;;;25.77;16.77;;;3.90;99.90;;;;;;10389164;28;20224;-75
2022/12/03 19:56:43;;;;;;;25.87;16.73;;;3.80;99.90;;;;;;10387116;28;20237;-75
2022/12/03 20:01:43;;;;;;;28.63;17.23;;;3.80;99.90;;;;;;10389785;28;20255;-74
2022/12/03 20:06:44;;;;;;;28.00;17.00;;;3.80;99.90;;;;;;10387246;28;20268;-75
2022/12/03 20:11:45;;;;;;;25.50;15.90;;;3.80;99.90;;;;;;10390893;28;20614;-74
2022/12/03 20:16:47;;;;;;;22.80;15.93;;;3.70;99.90;;;;;;10388891;28;20221;-75
2022/12/03 20:21:47;;;;;;;27.70;15.83;;;3.70;99.90;;;;;;10384180;28;20221;-75
2022/12/03 20:26:48;;;;;;;22.90;15.03;;;3.70;99.90;;;;;;10390570;28;20586;-75
2022/12/03 20:31:48;;;;;;;26.43;15.87;;;3.70;99.90;;;;;;10381531;28;20225;-75
2022/12/03 20:36:49;;;;;;;24.47;15.23;;;3.70;99.90;;;;;;10393284;28;20278;-74
2022/12/03 20:41:49;;;;;;;24.00;14.37;;;3.70;99.90;;;;;;10384278;28;20225;-75
2022/12/03 20:46:50;;;;;;;24.53;15.40;;;3.70;99.90;;;;;;10389063;28;20221;-75
2022/12/03 20:51:51;;;;;;;24.63;15.10;;;3.70;99.90;;;;;;10390276;28;20242;-74
2022/12/03 20:56:51;;;;;;;21.60;13.83;;;3.70;99.90;;;;;;10384519;28;20232;-75
2022/12/03 21:01:52;;;;;;;18.43;13.10;;;3.70;99.90;;;;;;10388996;28;20240;-75
2022/12/03 21:06:55;;;;;;;22.43;14.27;;;3.70;99.90;;;;;;10382994;28;20213;-74
2022/12/03 21:11:56;;;;;;;20.10;13.17;;;3.70;99.90;;;;;;10389667;28;20220;-75
2022/12/03 21:16:58;;;;;;;23.40;15.83;;;3.70;99.90;;;;;;10389110;28;20216;-74
2022/12/03 21:21:59;;;;;;;19.93;12.63;;;3.70;99.90;;;;;;10390278;28;20228;-75
2022/12/03 21:26:59;;;;;;;19.40;12.97;;;3.70;99.90;;;;;;10381263;28;20720;-76
2022/12/03 21:32:00;;;;;;;17.50;12.00;;;3.70;99.90;;;;;;10398531;28;20217;-75
2022/12/03 21:37:01;;;;;;;18.20;11.87;;;3.70;99.90;;;;;;10392923;28;20323;-75
2022/12/03 21:42:02;;;;;;;16.63;12.13;;;3.70;99.90;;;;;;10389718;28;20315;-76
2022/12/03 21:47:02;;;;;;;16.57;11.67;;;3.70;99.90;;;;;;10381050;28;20309;-75
2022/12/03 21:52:04;;;;;;;15.47;11.70;;;3.70;99.90;;;;;;10389698;28;20735;-75
2022/12/03 21:57:04;;;;;;;14.63;10.37;;;3.70;99.90;;;;;;10381665;28;20324;-75
2022/12/03 22:02:05;;;;;;;15.70;11.10;;;3.70;99.90;;;;;;10387482;28;20251;-75
2022/12/03 22:07:06;;;;;;;14.40;11.10;;;3.70;99.90;;;;;;10381834;28;20228;-75
2022/12/03 22:12:06;;;;;;;15.17;11.10;;;3.80;99.90;;;;;;10388850;28;20584;-74
2022/12/03 22:17:07;;;;;;;13.03;10.07;;;3.80;99.90;;;;;;10384152;28;20232;-75
2022/12/03 22:22:07;;;;;;;12.03;9.63;;;3.80;99.90;;;;;;10395537;28;20248;-75
2022/12/03 22:27:08;;;;;;;12.53;9.80;;;3.70;99.90;;;;;;10395155;28;20208;-75
2022/12/03 22:32:09;;;;;;;14.30;10.70;;;3.70;99.90;;;;;;10387824;28;20217;-75
2022/12/03 22:37:09;;;;;;;13.10;9.83;;;3.70;99.90;;;;;;10396279;28;20229;-74
2022/12/03 22:42:10;;;;;;;12.13;10.20;;;3.70;99.90;;;;;;10394952;28;20244;-75
2022/12/03 22:47:12;;;;;;;12.17;9.93;;;3.70;99.90;;;;;;10394964;28;20223;-75
2022/12/03 22:52:12;;;;;;;14.40;10.73;;;3.60;99.90;;;;;;10387583;28;20228;-75
2022/12/03 22:57:14;;;;;;;12.90;9.60;;;3.60;99.90;;;;;;10393495;28;20231;-75
2022/12/03 23:02:15;;;;;;;19.50;10.23;;;3.60;99.90;;;;;;10388066;28;20217;-75
2022/12/03 23:07:15;;;;;;;13.63;10.27;;;3.50;99.90;;;;;;10393604;28;20216;-74
2022/12/03 23:12:16;;;;;;;14.40;10.30;;;3.50;99.90;;;;;;10385876;28;20293;-75
2022/12/03 23:17:18;;;;;;;12.70;10.10;;;3.50;99.90;;;;;;10388366;28;20292;-75
2022/12/03 23:22:18;;;;;;;14.20;10.40;;;3.50;99.90;;;;;;10391425;28;20247;-75
2022/12/03 23:27:19;;;;;;;13.73;10.57;;;3.50;99.90;;;;;;10387569;28;20220;-75
2022/12/03 23:32:20;;;;;;;14.10;10.37;;;3.50;99.90;;;;;;10398914;28;20602;-75
2022/12/03 23:37:21;;;;;;;12.50;9.80;;;3.50;99.90;;;;;;10394662;28;20222;-75
2022/12/03 23:42:26;;;;;;;12.40;9.70;;;3.50;99.90;;;;;;10392581;28;20225;-74
2022/12/03 23:47:26;;;;;;;13.00;10.73;;;3.50;99.90;;;;;;10389077;28;20225;-75
2022/12/03 23:52:30;;;;;;;12.63;10.30;;;3.50;99.90;;;;;;10387576;28;20224;-75
2022/12/03 23:57:31;;;;;;;13.43;9.97;;;3.50;99.90;;;;;;10388804;28;20245;-75
